Time;durP1;ratioP1;P1;durP2;ratioP2;P2;SDS_P1;SDS_P2;PMS_P1;PMS_P2;Temp;Humidity;BMP_temperature;BMP_pressure;BME280_temperature;BME280_humidity;BME280_pressure;Samples;Min_cycle;Max_cycle;Signal;HPM_P1;HPM_P2
2023/09/30 00:03:42;;;;;;;24.00;17.80;;;;;;;11.53;100.00;99418.35;273744;1269;117087;-82
2023/09/30 00:10:53;;;;;;;24.00;16.40;;;;;;;11.48;100.00;99411.86;273488;1270;22459;-82
2023/09/30 00:17:33;;;;;;;22.00;16.70;;;;;;;11.43;100.00;99411.16;272019;1269;22188;-83
2023/09/30 00:23:36;;;;;;;27.50;19.00;;;;;;;11.35;100.00;99407.21;273935;1269;22208;-82
2023/09/30 00:29:38;;;;;;;28.90;17.80;;;;;;;11.33;100.00;99399.18;273701;1263;22464;-82
2023/09/30 00:36:13;;;;;;;20.20;16.30;;;;;;;11.27;100.00;99397.45;273698;1267;22277;-82
2023/09/30 00:42:37;;;;;;;29.70;17.90;;;;;;;11.23;100.00;99394.50;270083;1269;23362;-82
2023/09/30 00:48:42;;;;;;;21.80;17.10;;;;;;;11.23;100.00;99398.58;271616;1270;23786;-83
2023/09/30 00:54:44;;;;;;;25.60;15.60;;;;;;;11.21;100.00;99392.77;270231;1268;22770;-82
2023/09/30 01:00:47;;;;;;;24.90;18.10;;;;;;;11.14;100.00;99395.79;270510;1269;23165;-82
2023/09/30 01:06:50;;;;;;;21.50;16.00;;;;;;;11.10;100.00;99393.77;271898;1268;24521;-82
2023/09/30 01:13:17;;;;;;;22.30;16.30;;;;;;;11.06;100.00;99383.92;273517;1269;25221;-82
2023/09/30 01:19:19;;;;;;;29.50;17.60;;;;;;;11.01;100.00;99380.30;271826;1269;23039;-83
2023/09/30 01:26:05;;;;;;;26.70;17.50;;;;;;;10.99;100.00;99378.41;271950;1269;22206;-83
2023/09/30 01:32:28;;;;;;;33.30;19.80;;;;;;;10.93;100.00;99376.75;273760;1269;22177;-82
2023/09/30 01:38:50;;;;;;;27.10;18.70;;;;;;;10.88;100.00;99371.59;273685;1269;22172;-83
2023/09/30 01:44:52;;;;;;;23.70;16.30;;;;;;;10.85;100.00;99368.32;273135;1269;22670;-83
2023/09/30 01:51:13;;;;;;;23.40;15.50;;;;;;;10.81;100.00;99365.92;272750;1269;22187;-83
2023/09/30 01:57:56;;;;;;;27.70;17.00;;;;;;;10.79;100.00;99368.16;270675;1269;25656;-82
2023/09/30 02:04:06;;;;;;;21.70;17.20;;;;;;;10.77;100.00;99368.59;270848;1269;22720;-83
2023/09/30 02:10:08;;;;;;;27.80;17.70;;;;;;;10.78;100.00;99368.14;270863;1269;22565;-83
2023/09/30 02:16:13;;;;;;;21.70;16.40;;;;;;;10.77;100.00;99366.33;273779;1269;22246;-83
2023/09/30 02:22:15;;;;;;;24.00;16.90;;;;;;;10.76;100.00;99360.58;272527;1269;23184;-82
2023/09/30 02:28:17;;;;;;;25.20;17.40;;;;;;;10.77;100.00;99355.27;273178;1269;22548;-82
2023/09/30 02:35:01;;;;;;;21.40;15.90;;;;;;;10.80;100.00;99354.17;273182;1269;22693;-82
2023/09/30 02:41:23;;;;;;;23.30;16.00;;;;;;;10.81;100.00;99358.48;273505;1269;22241;-82
2023/09/30 02:47:46;;;;;;;22.90;15.20;;;;;;;10.77;100.00;99356.40;273693;1269;22391;-83
2023/09/30 02:53:48;;;;;;;25.40;17.80;;;;;;;10.82;100.00;99356.25;271878;1268;22422;-85
2023/09/30 03:06:45;;;;;;;19.10;14.80;;;;;;;10.92;100.00;99349.27;273985;1270;23844;-82
2023/09/30 03:13:27;;;;;;;21.80;14.50;;;;;;;11.00;100.00;99343.11;273900;1272;22362;-82
2023/09/30 03:20:09;;;;;;;23.30;15.70;;;;;;;11.08;100.00;99333.99;273749;1269;22178;-82
2023/09/30 03:26:47;;;;;;;22.80;15.50;;;;;;;11.08;100.00;99325.64;273724;1269;22372;-82
2023/09/30 03:33:26;;;;;;;21.70;15.50;;;;;;;11.13;100.00;99322.95;273792;1269;22203;-82
2023/09/30 03:39:28;;;;;;;22.40;15.50;;;;;;;11.17;100.00;99328.02;273932;1269;22440;-82
2023/09/30 03:46:23;;;;;;;21.00;14.70;;;;;;;11.22;100.00;99334.69;271788;1269;22550;-82
2023/09/30 03:52:45;;;;;;;19.00;14.30;;;;;;;11.31;100.00;99336.29;272466;1266;23405;-82
2023/09/30 03:59:27;;;;;;;20.00;14.50;;;;;;;11.36;100.00;99332.66;273321;1269;22540;-83
2023/09/30 04:06:32;;;;;;;20.50;13.80;;;;;;;11.47;100.00;99329.14;270566;1269;25036;-82
2023/09/30 04:12:52;;;;;;;19.50;13.50;;;;;;;11.57;100.00;99327.30;272068;1269;23254;-82
2023/09/30 04:19:24;;;;;;;19.70;12.80;;;;;;;11.63;100.00;99321.11;273907;1269;22397;-82
2023/09/30 04:25:50;;;;;;;21.40;11.80;;;;;;;11.71;100.00;99326.80;273933;1272;22229;-82
2023/09/30 04:32:01;;;;;;;18.40;11.80;;;;;;;11.76;100.00;99335.08;273948;1276;22191;-82
2023/09/30 04:38:22;;;;;;;19.90;11.90;;;;;;;11.85;100.00;99338.23;273631;1272;22241;-82
2023/09/30 04:44:27;;;;;;;19.30;12.40;;;;;;;11.91;100.00;99349.13;273762;1269;22184;-82
2023/09/30 04:50:30;;;;;;;17.10;11.80;;;;;;;11.95;100.00;99355.38;272965;1269;25508;-82
2023/09/30 04:56:32;;;;;;;17.70;12.30;;;;;;;12.01;100.00;99360.39;272441;1269;22522;-82
2023/09/30 05:02:58;;;;;;;15.60;11.70;;;;;;;12.12;100.00;99367.64;271281;1269;22196;-82
2023/09/30 05:09:39;;;;;;;18.90;12.80;;;;;;;12.16;100.00;99375.91;271017;1269;22543;-82
2023/09/30 05:16:21;;;;;;;20.90;13.20;;;;;;;12.20;100.00;99391.02;274010;1272;22919;-82
2023/09/30 05:23:07;;;;;;;21.10;12.80;;;;;;;12.22;100.00;99408.06;273854;1272;22176;-82
2023/09/30 05:29:08;;;;;;;23.50;14.30;;;;;;;12.26;100.00;99422.68;272951;1270;22624;-84
2023/09/30 05:35:18;;;;;;;25.20;14.60;;;;;;;12.31;100.00;99431.20;271954;1271;22543;-83
2023/09/30 05:41:20;;;;;;;24.80;14.80;;;;;;;12.34;100.00;99439.77;273025;1268;22169;-83
2023/09/30 05:48:46;;;;;;;29.40;16.40;;;;;;;12.46;100.00;99443.05;273872;1269;22772;-83
2023/09/30 05:55:09;;;;;;;27.40;16.60;;;;;;;12.54;100.00;99434.96;273481;1269;22191;-83
2023/09/30 06:01:18;;;;;;;27.50;15.60;;;;;;;12.64;100.00;99431.79;273860;1272;22221;-83
2023/09/30 06:08:28;;;;;;;28.60;16.10;;;;;;;12.74;100.00;99431.55;273689;1273;23356;-82
2023/09/30 06:15:06;;;;;;;25.70;16.10;;;;;;;12.86;100.00;99441.09;273959;1276;22269;-83
2023/09/30 06:21:31;;;;;;;23.00;14.40;;;;;;;12.99;100.00;99444.20;274008;1272;22253;-83
2023/09/30 06:27:35;;;;;;;23.70;15.30;;;;;;;13.09;100.00;99447.91;273816;1269;22823;-82
2023/09/30 06:33:58;;;;;;;17.80;13.40;;;;;;;13.19;100.00;99456.02;273872;1273;22179;-82
2023/09/30 06:40:20;;;;;;;20.00;14.50;;;;;;;13.35;100.00;99465.86;273996;1275;22177;-83
2023/09/30 06:46:27;;;;;;;17.90;14.10;;;;;;;13.50;100.00;99482.40;273729;1275;22226;-83
2023/09/30 06:52:57;;;;;;;23.10;14.40;;;;;;;13.63;100.00;99486.81;273689;1269;22801;-83
2023/09/30 06:58:59;;;;;;;18.20;13.50;;;;;;;13.80;100.00;99491.80;273965;1275;22213;-83
2023/09/30 07:05:25;;;;;;;19.20;13.20;;;;;;;13.92;100.00;99501.54;273787;1275;22179;-82
2023/09/30 07:11:37;;;;;;;18.60;13.30;;;;;;;14.03;100.00;99511.98;273807;1270;22193;-83
2023/09/30 07:17:40;;;;;;;15.20;12.60;;;;;;;14.12;100.00;99513.45;273914;1275;22180;-83
2023/09/30 07:23:42;;;;;;;25.40;15.80;;;;;;;14.21;100.00;99517.12;273859;1270;22399;-85
2023/09/30 07:29:52;;;;;;;21.60;15.90;;;;;;;14.31;100.00;99519.70;273793;1269;22197;-83
2023/09/30 07:36:16;;;;;;;24.90;15.90;;;;;;;14.41;100.00;99535.25;273708;1267;23811;-83
2023/09/30 07:42:17;;;;;;;22.10;16.10;;;;;;;14.47;100.00;99543.77;273275;1269;22542;-83
2023/09/30 07:48:19;;;;;;;26.90;17.00;;;;;;;14.56;100.00;99548.05;271676;1268;22384;-83
2023/09/30 07:54:21;;;;;;;21.80;16.50;;;;;;;14.66;100.00;99548.25;271414;1269;22531;-83
2023/09/30 08:00:45;;;;;;;28.50;18.00;;;;;;;14.72;100.00;99550.63;272550;1269;22312;-83
2023/09/30 08:07:27;;;;;;;23.50;18.00;;;;;;;14.78;100.00;99558.84;273543;1269;22410;-83
2023/09/30 08:14:09;;;;;;;25.50;17.70;;;;;;;14.86;100.00;99561.46;273820;1267;22181;-82
2023/09/30 08:20:51;;;;;;;28.20;18.30;;;;;;;14.89;100.00;99562.42;273857;1269;22171;-82
2023/09/30 08:27:34;;;;;;;24.70;17.50;;;;;;;14.94;100.00;99560.93;272777;1272;22807;-82
2023/09/30 08:33:36;;;;;;;24.30;16.40;;;;;;;15.00;100.00;99561.11;272804;1272;22335;-83
2023/09/30 08:39:57;;;;;;;21.70;15.50;;;;;;;15.07;100.00;99565.85;272813;1256;22263;-82
2023/09/30 08:45:59;;;;;;;27.50;17.40;;;;;;;15.14;100.00;99564.60;272847;1273;22326;-82
2023/09/30 08:52:53;;;;;;;23.00;16.10;;;;;;;15.16;100.00;99571.39;272749;1272;22275;-82
2023/09/30 08:58:58;;;;;;;28.90;16.10;;;;;;;15.19;100.00;99573.29;273895;1275;22208;-82
2023/09/30 09:05:00;;;;;;;22.80;17.00;;;;;;;15.23;100.00;99571.08;272431;1267;22335;-83
2023/09/30 09:11:22;;;;;;;26.40;17.00;;;;;;;15.26;100.00;99573.29;271170;1269;22550;-82
2023/09/30 09:17:23;;;;;;;26.20;16.60;;;;;;;15.32;100.00;99576.77;271032;1270;22549;-83
2023/09/30 09:23:42;;;;;;;22.20;15.70;;;;;;;15.36;100.00;99573.54;271168;1267;22394;-83
2023/09/30 09:29:45;;;;;;;23.40;15.40;;;;;;;15.37;100.00;99574.98;270174;1270;24219;-82
2023/09/30 09:35:55;;;;;;;23.80;16.70;;;;;;;15.41;100.00;99573.42;273753;1269;22389;-83
2023/09/30 09:41:57;;;;;;;26.60;16.10;;;;;;;15.45;100.00;99567.98;273884;1269;23260;-82
2023/09/30 09:48:19;;;;;;;22.30;15.40;;;;;;;15.50;100.00;99569.16;273143;1270;23480;-83
2023/09/30 09:54:49;;;;;;;23.20;16.30;;;;;;;15.56;100.00;99571.85;273877;1273;22193;-82
2023/09/30 10:00:55;;;;;;;24.00;15.90;;;;;;;15.59;100.00;99573.44;273671;1268;23607;-82
2023/09/30 10:07:43;;;;;;;23.60;15.60;;;;;;;15.59;100.00;99575.17;273906;1270;22246;-82
2023/09/30 10:14:36;;;;;;;23.40;17.20;;;;;;;15.59;100.00;99582.82;273925;1269;22182;-83
2023/09/30 10:21:07;;;;;;;28.50;18.20;;;;;;;15.58;100.00;99581.94;273339;1269;22272;-85
2023/09/30 10:27:34;;;;;;;23.10;16.00;;;;;;;15.56;100.00;99583.91;273756;1261;22407;-83
2023/09/30 10:34:19;;;;;;;25.80;16.90;;;;;;;15.54;100.00;99585.50;274006;1270;22159;-83
2023/09/30 10:40:43;;;;;;;26.60;17.50;;;;;;;15.51;100.00;99588.73;273880;1271;22866;-84
2023/09/30 10:54:06;;;;;;;22.60;15.50;;;;;;;15.43;100.00;99588.31;274007;1275;23362;-84
2023/09/30 11:00:13;;;;;;;22.80;15.00;;;;;;;15.43;100.00;99591.70;273820;1270;22210;-85
2023/09/30 11:06:53;;;;;;;18.10;13.40;;;;;;;15.45;100.00;99591.71;273904;1268;22213;-85
2023/09/30 11:13:15;;;;;;;20.60;13.70;;;;;;;15.47;100.00;99589.66;274010;1275;22371;-85
2023/09/30 11:19:58;;;;;;;16.10;12.20;;;;;;;15.47;100.00;99592.97;273707;1270;22262;-85
2023/09/30 11:27:31;;;;;;;20.40;12.50;;;;;;;15.48;100.00;99597.31;273849;1269;22202;-85
2023/09/30 11:33:33;;;;;;;14.80;10.70;;;;;;;15.48;100.00;99599.67;273988;1270;22183;-86
2023/09/30 11:40:31;;;;;;;17.10;10.20;;;;;;;15.49;100.00;99599.13;273808;1272;22216;-85
2023/09/30 11:47:14;;;;;;;;;;;;;;;15.51;100.00;99597.62;273736;1270;22411;-85
2023/09/30 11:54:23;;;;;;;8.30;7.00;;;;;;;15.53;100.00;99593.20;273806;1272;22208;-85
2023/09/30 12:00:24;;;;;;;11.00;8.70;;;;;;;15.59;100.00;99597.71;273537;1267;116759;-84
2023/09/30 12:06:50;;;;;;;13.10;8.20;;;;;;;15.65;100.00;99598.19;273780;1269;22305;-85
2023/09/30 12:13:18;;;;;;;9.00;8.10;;;;;;;15.71;100.00;99596.92;273764;1270;22174;-84
2023/09/30 12:19:21;;;;;;;12.20;8.30;;;;;;;15.76;100.00;99596.53;272823;1269;22356;-85
2023/09/30 12:25:29;;;;;;;10.80;9.60;;;;;;;15.84;100.00;99595.42;270368;1267;22571;-83
2023/09/30 12:38:58;;;;;;;15.10;12.00;;;;;;;16.02;100.00;99593.27;271301;1269;22517;-83
2023/09/30 12:45:00;;;;;;;13.20;11.30;;;;;;;16.11;100.00;99594.77;270888;1269;22547;-84
2023/09/30 12:51:30;;;;;;;14.40;11.70;;;;;;;16.18;100.00;99590.02;270112;1269;23278;-84
2023/09/30 12:58:24;;;;;;;13.30;11.40;;;;;;;16.23;100.00;99586.30;272959;1262;22520;-84
2023/09/30 13:05:06;;;;;;;13.80;12.50;;;;;;;16.32;100.00;99587.94;273885;1269;22928;-84
2023/09/30 13:12:23;;;;;;;13.10;11.60;;;;;;;16.39;100.00;99588.23;273959;1269;23266;-84
2023/09/30 13:19:32;;;;;;;;;;;;;;;;;;;;;
2023/09/30 13:26:03;;;;;;;19.50;14.30;;;;;;;16.47;100.00;99586.88;270479;1269;22597;-83
2023/09/30 13:32:05;;;;;;;20.10;15.90;;;;;;;16.46;100.00;99588.23;270928;1269;23081;-84
2023/09/30 13:38:22;;;;;;;18.30;15.70;;;;;;;16.45;100.00;99588.63;274027;1275;22247;-85
2023/09/30 13:44:51;;;;;;;20.20;15.30;;;;;;;16.40;100.00;99590.59;273857;1269;22063;-84
2023/09/30 13:51:17;;;;;;;19.50;17.00;;;;;;;16.32;100.00;99602.30;274082;1269;22230;-84
2023/09/30 13:57:21;;;;;;;21.70;17.40;;;;;;;16.22;100.00;99606.74;273920;1275;22531;-84
2023/09/30 14:03:46;;;;;;;21.10;16.90;;;;;;;16.15;100.00;99613.94;272930;1269;22382;-84
2023/09/30 14:09:49;;;;;;;18.30;14.90;;;;;;;16.08;100.00;99619.63;270855;1269;22598;-84
2023/09/30 14:16:11;;;;;;;15.30;11.60;;;;;;;15.94;100.00;99626.58;270087;1269;22556;-84
2023/09/30 14:22:34;;;;;;;16.90;11.80;;;;;;;15.85;100.00;99632.10;269884;1269;22678;-84
2023/09/30 14:28:36;;;;;;;22.30;15.90;;;;;;;15.85;100.00;99640.93;270602;1269;25246;-85
2023/09/30 14:35:00;;;;;;;24.10;17.80;;;;;;;15.80;100.00;99640.77;273543;1269;22303;-85
2023/09/30 14:41:52;;;;;;;35.50;21.30;;;;;;;15.71;100.00;99643.38;272163;1270;22202;-85
2023/09/30 14:48:49;;;;;;;29.20;21.10;;;;;;;15.55;100.00;99653.92;273280;1270;22221;-85
2023/09/30 14:55:26;;;;;;;29.50;17.60;;;;;;;15.44;100.00;99659.58;271944;1269;23553;-85
2023/09/30 15:01:44;;;;;;;22.40;15.60;;;;;;;15.42;100.00;99661.23;273581;1269;22224;-85
2023/09/30 15:08:06;;;;;;;26.70;17.40;;;;;;;15.44;100.00;99658.80;273719;1276;22181;-85
2023/09/30 15:14:29;;;;;;;28.50;18.90;;;;;;;15.43;100.00;99668.25;273633;1269;22187;-85
2023/09/30 15:20:38;;;;;;;32.00;18.80;;;;;;;15.42;100.00;99672.91;273615;1269;22952;-84
2023/09/30 15:26:40;;;;;;;30.10;18.00;;;;;;;15.41;100.00;99683.53;271835;1269;22495;-84
2023/09/30 15:33:30;;;;;;;27.30;17.30;;;;;;;15.37;100.00;99685.08;270626;1269;23646;-84
2023/09/30 15:40:17;;;;;;;28.30;17.30;;;;;;;15.34;100.00;99683.48;271490;1269;22547;-84
2023/09/30 15:46:18;;;;;;;24.80;16.40;;;;;;;15.32;100.00;99693.02;270801;1269;22567;-84
2023/09/30 15:52:21;;;;;;;25.10;16.00;;;;;;;15.29;100.00;99701.92;270021;1269;22600;-84
2023/09/30 15:59:11;;;;;;;18.80;14.30;;;;;;;15.27;100.00;99706.16;272671;1269;22261;-84
2023/09/30 16:05:14;;;;;;;21.50;12.90;;;;;;;15.24;100.00;99711.44;273790;1276;23517;-84
2023/09/30 16:12:07;;;;;;;20.90;12.80;;;;;;;15.23;100.00;99716.16;273706;1269;22221;-84
2023/09/30 16:19:09;;;;;;;16.60;12.10;;;;;;;15.19;100.00;99724.57;273786;1274;22263;-84
2023/09/30 16:26:26;;;;;;;20.20;12.10;;;;;;;15.13;100.00;99733.28;273615;1269;22202;-84
2023/09/30 16:32:56;;;;;;;21.30;14.00;;;;;;;15.10;100.00;99746.59;273574;1269;22202;-81
2023/09/30 16:39:38;;;;;;;20.40;13.10;;;;;;;15.06;100.00;99750.27;273711;1269;22088;-82
2023/09/30 16:45:41;;;;;;;23.70;13.40;;;;;;;15.00;100.00;99750.39;273711;1269;22398;-81
2023/09/30 16:51:43;;;;;;;23.20;14.40;;;;;;;14.92;100.00;99761.15;273916;1268;22161;-81
2023/09/30 16:57:46;;;;;;;17.60;13.60;;;;;;;14.85;100.00;99771.73;273909;1269;22166;-82
2023/09/30 17:04:08;;;;;;;23.30;14.90;;;;;;;14.72;100.00;99776.06;274007;1270;22205;-81
2023/09/30 17:10:11;;;;;;;30.30;17.10;;;;;;;14.51;100.00;99780.07;270469;1263;22535;-84
2023/09/30 17:16:20;;;;;;;25.40;15.50;;;;;;;14.43;100.00;99779.30;271078;1269;22400;-84
2023/09/30 17:22:22;;;;;;;24.00;16.20;;;;;;;14.37;100.00;99782.23;271725;1272;22154;-85
2023/09/30 17:29:04;;;;;;;28.50;17.40;;;;;;;14.33;100.00;99792.52;273663;1269;22207;-84
2023/09/30 17:36:02;;;;;;;26.20;16.00;;;;;;;14.28;100.00;99803.27;273736;1269;23417;-84
2023/09/30 17:42:27;;;;;;;24.10;16.30;;;;;;;14.22;100.00;99817.89;273818;1269;23749;-82
2023/09/30 17:48:33;;;;;;;25.10;17.50;;;;;;;14.15;100.00;99827.73;273722;1269;22243;-82
2023/09/30 17:54:42;;;;;;;24.50;17.10;;;;;;;14.15;100.00;99825.69;273695;1270;22211;-83
2023/09/30 18:00:48;;;;;;;29.80;16.10;;;;;;;14.15;100.00;99823.97;273948;1269;22186;-82
2023/09/30 18:07:15;;;;;;;21.70;15.00;;;;;;;14.12;100.00;99826.98;273610;1269;22416;-82
2023/09/30 18:13:38;;;;;;;24.80;14.40;;;;;;;14.09;100.00;99836.40;273965;1270;22154;-82
2023/09/30 18:20:05;;;;;;;22.20;12.70;;;;;;;14.07;100.00;99847.95;273955;1275;22177;-82
2023/09/30 18:26:27;;;;;;;17.70;11.00;;;;;;;14.08;100.00;99854.88;273814;1269;22183;-82
2023/09/30 18:40:57;;;;;;;20.60;11.60;;;;;;;14.07;100.00;99861.15;274011;1258;22673;-83
2023/09/30 18:47:53;;;;;;;20.60;11.70;;;;;;;14.04;100.00;99863.48;273787;1269;22172;-82
2023/09/30 18:55:38;;;;;;;17.20;10.80;;;;;;;13.94;100.00;99863.14;271480;1269;22542;-83
2023/09/30 19:03:08;;;;;;;19.30;11.40;;;;;;;13.81;100.00;99870.93;273731;1269;22207;-83
2023/09/30 19:09:12;;;;;;;18.20;10.90;;;;;;;13.68;100.00;99874.23;271236;1269;22329;-84
2023/09/30 19:15:14;;;;;;;20.00;11.40;;;;;;;13.57;100.00;99874.95;272229;1269;23322;-84
2023/09/30 19:21:15;;;;;;;16.40;10.90;;;;;;;13.45;100.00;99864.34;270059;1269;23348;-84
2023/09/30 19:27:19;;;;;;;21.50;11.40;;;;;;;13.31;100.00;99858.48;270427;1269;22382;-84
2023/09/30 19:33:21;;;;;;;17.80;10.80;;;;;;;13.24;100.00;99871.84;271259;1270;22558;-84
2023/09/30 19:40:08;;;;;;;18.40;11.60;;;;;;;13.22;100.00;99887.83;272270;1269;23450;-82
2023/09/30 19:46:52;;;;;;;23.80;14.10;;;;;;;13.08;100.00;99891.62;272070;1269;23653;-84
2023/09/30 19:52:54;;;;;;;21.20;13.40;;;;;;;12.94;100.00;99891.36;269830;1269;24041;-85
2023/09/30 19:59:20;;;;;;;21.30;12.90;;;;;;;12.83;100.00;99892.13;272250;1269;22208;-84
2023/09/30 20:05:42;;;;;;;17.80;12.70;;;;;;;12.70;100.00;99891.21;273921;1275;23860;-83
2023/09/30 20:11:58;;;;;;;20.00;11.90;;;;;;;12.66;100.00;99893.26;274111;1275;22191;-84
2023/09/30 20:18:54;;;;;;;21.40;12.30;;;;;;;12.66;100.00;99899.14;273703;1271;22170;-83
2023/09/30 20:26:23;;;;;;;21.70;12.70;;;;;;;12.65;100.00;99902.35;272411;1269;22171;-84
2023/09/30 20:32:26;;;;;;;20.50;11.70;;;;;;;12.63;100.00;99901.69;271813;1269;22528;-84
2023/09/30 20:38:30;;;;;;;22.70;12.40;;;;;;;12.64;100.00;99906.64;270904;1269;22192;-84
2023/09/30 20:44:33;;;;;;;23.60;13.70;;;;;;;12.67;100.00;99897.98;273640;1269;22199;-84
2023/09/30 20:51:23;;;;;;;26.30;12.90;;;;;;;12.64;100.00;99889.31;272994;1273;22186;-84
2023/09/30 20:58:09;;;;;;;21.40;11.90;;;;;;;12.55;100.00;99892.14;273976;1276;22185;-84
2023/09/30 21:04:30;;;;;;;24.20;11.80;;;;;;;12.54;100.00;99895.98;273887;1272;22282;-84
2023/09/30 21:10:35;;;;;;;20.20;12.10;;;;;;;12.57;100.00;99905.12;273873;1269;22852;-84
2023/09/30 21:17:36;;;;;;;20.10;11.30;;;;;;;12.63;100.00;99912.04;273620;1265;22221;-84
2023/09/30 21:25:00;;;;;;;19.20;11.60;;;;;;;12.60;100.00;99916.00;273698;1269;22248;-84
2023/09/30 21:31:28;;;;;;;17.50;11.10;;;;;;;12.52;100.00;99920.19;273654;1269;22617;-84
2023/09/30 21:37:52;;;;;;;15.70;10.70;;;;;;;12.53;100.00;99918.70;273850;1276;23228;-84
2023/09/30 21:43:54;;;;;;;23.80;11.30;;;;;;;12.44;100.00;99923.88;273899;1272;23330;-84
2023/09/30 21:49:55;;;;;;;29.40;13.00;;;;;;;12.42;100.00;99923.77;271950;1269;22544;-84
2023/09/30 21:56:27;;;;;;;17.30;10.80;;;;;;;12.36;100.00;99923.09;273940;1276;22168;-84
2023/09/30 22:03:10;;;;;;;22.50;11.40;;;;;;;12.37;100.00;99934.18;273915;1273;22196;-84
2023/09/30 22:10:04;;;;;;;23.80;12.30;;;;;;;12.43;100.00;99944.32;273768;1275;22178;-84
2023/09/30 22:16:51;;;;;;;24.70;12.00;;;;;;;12.38;100.00;99933.23;273968;1269;22230;-84
2023/09/30 22:22:55;;;;;;;20.80;11.90;;;;;;;12.28;100.00;99926.23;273836;1269;22186;-84
2023/09/30 22:29:17;;;;;;;23.30;11.90;;;;;;;12.27;100.00;99929.05;273851;1269;22553;-85
2023/09/30 22:36:11;;;;;;;22.20;10.80;;;;;;;12.26;100.00;99930.74;270258;1265;22575;-84
2023/09/30 22:42:20;;;;;;;26.00;11.20;;;;;;;12.12;100.00;99925.07;270561;1272;22548;-84
2023/09/30 22:48:21;;;;;;;17.80;10.70;;;;;;;11.99;100.00;99927.79;271766;1269;23861;-84
2023/09/30 22:54:45;;;;;;;20.80;10.20;;;;;;;11.97;100.00;99930.50;270078;1269;22232;-84
2023/09/30 23:00:46;;;;;;;18.50;9.20;;;;;;;11.89;100.00;99931.73;270259;1270;22605;-84
2023/09/30 23:06:48;;;;;;;17.60;8.90;;;;;;;11.75;100.00;99935.91;270970;1269;23756;-84
2023/09/30 23:13:30;;;;;;;18.50;9.90;;;;;;;11.60;100.00;99939.39;271783;1269;22216;-84
2023/09/30 23:20:34;;;;;;;15.20;8.80;;;;;;;11.39;100.00;99939.70;271926;1269;22563;-84
2023/09/30 23:26:40;;;;;;;17.00;9.90;;;;;;;11.22;100.00;99947.67;271543;1269;22534;-85
2023/09/30 23:33:18;;;;;;;16.80;9.50;;;;;;;11.14;100.00;99945.60;270613;1270;22520;-84
2023/09/30 23:47:07;;;;;;;17.10;7.90;;;;;;;11.02;100.00;99947.13;270485;1269;22600;-83
2023/09/30 23:54:06;;;;;;;12.20;7.70;;;;;;;10.99;100.00;99938.36;273469;1268;22556;-84
